Time;durP1;ratioP1;P1;durP2;ratioP2;P2;SDS_P1;SDS_P2;PMS_P1;PMS_P2;Temp;Humidity;BMP_temperature;BMP_pressure;BME280_temperature;BME280_humidity;BME280_pressure;Samples;Min_cycle;Max_cycle;Signal;HPM_P1;HPM_P2
2021/05/18 00:00:29;;;;;;;2.20;2.10;;;19.60;35.80;;;;;;5016949;28;20513;-78
2021/05/18 00:02:55;;;;;;;2.30;2.20;;;19.70;35.90;;;;;;5017181;28;20825;-78
2021/05/18 00:05:24;;;;;;;3.57;2.50;;;19.60;35.90;;;;;;5016928;28;20176;-78
2021/05/18 00:13:08;;;;;;;2.83;2.63;;;19.60;35.80;;;;;;5035148;28;20450;-77
2021/05/18 00:15:34;;;;;;;2.57;2.37;;;19.60;35.80;;;;;;5016301;28;20582;-77
2021/05/18 00:18:00;;;;;;;2.47;2.37;;;19.60;35.80;;;;;;5017006;28;20404;-78
2021/05/18 00:20:27;;;;;;;2.63;2.43;;;19.60;35.80;;;;;;5034472;28;20431;-78
2021/05/18 00:22:52;;;;;;;2.30;2.20;;;19.60;35.80;;;;;;5016336;28;20997;-78
2021/05/18 00:25:18;;;;;;;2.03;1.93;;;19.60;35.80;;;;;;5033763;28;20498;-76
2021/05/18 00:27:44;;;;;;;2.40;2.30;;;19.60;35.80;;;;;;5016165;28;20269;-79
2021/05/18 00:30:11;;;;;;;2.30;2.20;;;19.60;35.80;;;;;;5016278;28;20204;-77
2021/05/18 00:32:39;;;;;;;2.20;2.10;;;19.60;35.80;;;;;;5016010;28;20412;-77
2021/05/18 00:35:07;;;;;;;2.40;2.30;;;19.60;35.80;;;;;;5033933;28;20451;-78
2021/05/18 00:37:32;;;;;;;2.40;2.30;;;19.60;35.80;;;;;;5016393;28;20806;-78
2021/05/18 00:39:58;;;;;;;2.50;2.40;;;19.60;35.80;;;;;;5033757;28;20435;-78
2021/05/18 00:42:25;;;;;;;2.40;2.30;;;19.60;35.70;;;;;;5016543;28;20276;-78
2021/05/18 00:44:53;;;;;;;2.37;2.27;;;19.60;35.80;;;;;;5016750;28;20172;-78
2021/05/18 00:47:19;;;;;;;2.27;2.17;;;19.60;35.70;;;;;;5000526;28;20458;-78
2021/05/18 00:49:45;;;;;;;2.40;2.30;;;19.60;35.70;;;;;;5017012;28;20427;-78
2021/05/18 00:52:11;;;;;;;2.63;2.27;;;19.60;35.70;;;;;;5017237;28;20424;-79
2021/05/18 00:55:04;;;;;;;3.03;2.20;;;19.60;35.70;;;;;;5016676;28;20567;-79
2021/05/18 01:00:15;;;;;;;2.60;2.40;;;19.60;35.70;;;;;;5034574;28;20929;-78
2021/05/18 01:02:40;;;;;;;2.73;2.63;;;19.60;35.70;;;;;;5016864;28;20411;-79
2021/05/18 01:05:15;;;;;;;2.50;2.40;;;19.60;35.70;;;;;;5016639;28;20435;-78
2021/05/18 01:07:41;;;;;;;2.53;2.43;;;19.60;35.70;;;;;;5016743;28;20180;-79
2021/05/18 01:10:07;;;;;;;2.73;2.27;;;19.60;35.70;;;;;;5016387;28;20435;-78
2021/05/18 01:12:33;;;;;;;2.60;2.50;;;19.60;35.70;;;;;;5016192;28;20526;-78
2021/05/18 01:14:59;;;;;;;2.63;2.43;;;19.60;35.70;;;;;;5015919;28;20981;-78
2021/05/18 01:17:25;;;;;;;2.40;2.20;;;19.60;35.70;;;;;;5015488;28;20449;-78
2021/05/18 01:19:51;;;;;;;3.07;2.50;;;19.60;35.70;;;;;;5033514;28;20193;-78
2021/05/18 01:22:16;;;;;;;2.77;2.60;;;19.60;35.70;;;;;;5015673;28;20470;-78
2021/05/18 01:24:42;;;;;;;2.40;2.30;;;19.60;35.80;;;;;;5015635;28;20185;-78
2021/05/18 01:27:08;;;;;;;2.50;2.20;;;19.60;35.70;;;;;;5014769;28;20184;-78
2021/05/18 01:29:34;;;;;;;2.83;2.47;;;19.50;35.60;;;;;;5033131;28;20639;-78
2021/05/18 01:32:02;;;;;;;2.47;2.37;;;19.50;35.70;;;;;;5032806;28;20418;-78
2021/05/18 01:34:27;;;;;;;2.43;2.27;;;19.60;35.70;;;;;;5014868;28;20458;-77
2021/05/18 01:36:53;;;;;;;2.00;1.90;;;19.50;35.60;;;;;;5031957;28;20465;-77
2021/05/18 01:44:31;;;;;;;2.53;2.43;;;19.50;35.60;;;;;;5034129;28;20214;-77
2021/05/18 01:46:57;;;;;;;2.67;2.47;;;19.50;36.30;;;;;;5016335;28;20412;-78
2021/05/18 01:49:23;;;;;;;2.50;2.30;;;19.50;35.60;;;;;;5017242;28;20893;-78
2021/05/18 01:51:51;;;;;;;2.30;2.20;;;19.50;35.70;;;;;;5016313;28;20930;-78
2021/05/18 01:54:24;;;;;;;2.70;2.50;;;19.50;36.30;;;;;;5016462;28;20215;-78
2021/05/18 01:59:29;;;;;;;2.40;2.20;;;19.50;35.70;;;;;;5033719;28;20415;-78
2021/05/18 02:01:58;;;;;;;2.30;2.10;;;19.50;35.70;;;;;;5015817;28;20497;-78
2021/05/18 02:04:26;;;;;;;2.40;2.30;;;19.50;35.60;;;;;;5015960;28;20422;-78
2021/05/18 02:06:53;;;;;;;2.10;2.00;;;19.50;35.70;;;;;;5032949;28;20412;-78
2021/05/18 02:09:19;;;;;;;2.20;2.00;;;19.50;35.70;;;;;;5015545;28;20428;-78
2021/05/18 02:11:45;;;;;;;2.37;2.27;;;19.50;35.70;;;;;;5015034;28;20949;-78
2021/05/18 02:14:18;;;;;;;2.47;2.30;;;19.50;35.70;;;;;;5017297;28;20469;-77
2021/05/18 02:16:49;;;;;;;2.40;2.30;;;19.50;35.70;;;;;;5036821;28;20722;-78
2021/05/18 02:19:44;;;;;;;2.00;1.90;;;19.50;35.70;;;;;;5036169;28;20419;-78
2021/05/18 02:24:44;;;;;;;2.30;2.20;;;19.50;35.70;;;;;;5037502;28;20940;-78
2021/05/18 02:27:10;;;;;;;2.10;2.00;;;19.50;35.70;;;;;;5020252;28;20481;-79
2021/05/18 02:29:35;;;;;;;2.70;2.50;;;19.50;35.70;;;;;;5020044;28;20423;-78
2021/05/18 02:32:01;;;;;;;2.60;2.20;;;19.40;35.70;;;;;;5019785;28;20172;-78
2021/05/18 02:34:27;;;;;;;2.13;2.00;;;19.50;35.70;;;;;;5037539;28;20680;-78
2021/05/18 02:36:52;;;;;;;2.20;2.10;;;19.50;35.70;;;;;;5019604;28;20184;-79
2021/05/18 02:39:18;;;;;;;2.43;2.33;;;19.40;35.60;;;;;;5019978;28;20255;-78
2021/05/18 02:41:44;;;;;;;2.20;2.10;;;19.50;35.70;;;;;;5018509;28;20200;-78
2021/05/18 02:44:26;;;;;;;2.10;2.00;;;19.50;35.70;;;;;;5018649;28;20176;-78
2021/05/18 02:49:36;;;;;;;2.23;1.93;;;19.50;35.70;;;;;;5036564;28;20789;-78
2021/05/18 02:52:02;;;;;;;2.10;2.00;;;19.50;35.70;;;;;;5018748;28;20416;-78
2021/05/18 02:54:28;;;;;;;2.10;2.00;;;19.50;35.70;;;;;;5018302;28;20451;-78
2021/05/18 02:59:20;;;;;;;2.30;2.17;;;19.50;35.70;;;;;;5036324;28;20537;-78
2021/05/18 03:01:50;;;;;;;2.40;2.30;;;19.50;35.70;;;;;;5018618;28;21010;-78
2021/05/18 03:04:16;;;;;;;2.20;2.10;;;19.50;35.70;;;;;;5019631;28;20263;-78
2021/05/18 03:06:41;;;;;;;2.30;2.20;;;19.50;35.70;;;;;;5019275;28;20411;-78
2021/05/18 03:09:10;;;;;;;2.43;2.23;;;19.50;35.70;;;;;;5019337;28;20422;-78
2021/05/18 03:11:37;;;;;;;2.17;2.07;;;19.40;35.70;;;;;;5036695;28;20189;-78
2021/05/18 03:14:04;;;;;;;2.73;2.43;;;19.50;35.60;;;;;;5037240;28;20541;-78
2021/05/18 03:16:30;;;;;;;4.80;2.30;;;19.40;35.60;;;;;;5019143;28;20412;-78
2021/05/18 03:18:56;;;;;;;2.70;2.20;;;19.40;35.60;;;;;;5019254;28;20420;-78
2021/05/18 03:21:22;;;;;;;1.97;1.87;;;19.40;35.60;;;;;;5036759;28;20220;-79
2021/05/18 03:23:47;;;;;;;1.87;1.77;;;19.40;35.70;;;;;;5036475;28;20181;-78
2021/05/18 03:26:13;;;;;;;1.90;1.80;;;19.40;35.60;;;;;;5017737;28;20423;-78
2021/05/18 03:28:39;;;;;;;2.33;2.20;;;19.40;35.60;;;;;;5018604;28;20181;-78
2021/05/18 03:36:33;;;;;;;2.23;2.13;;;19.40;35.60;;;;;;5036104;28;20410;-80
2021/05/18 03:38:58;;;;;;;2.70;2.50;;;19.40;35.60;;;;;;5018697;28;20415;-78
2021/05/18 03:41:28;;;;;;;2.20;2.10;;;19.40;35.60;;;;;;5018522;28;20223;-78
2021/05/18 03:44:01;;;;;;;2.20;2.10;;;19.40;35.60;;;;;;5018805;28;20184;-78
2021/05/18 03:54:22;;;;;;;2.00;2.00;;;19.40;35.70;;;;;;5036005;28;20486;-79
2021/05/18 04:05:10;;;;;;;2.30;2.20;;;19.40;35.70;;;;;;5035954;28;20933;-78
2021/05/18 04:18:51;;;;;;;2.43;2.23;;;19.40;35.70;;;;;;5035077;28;20438;-78
2021/05/18 04:50:58;;;;;;;2.10;1.90;;;19.70;35.80;;;;;;5007405;28;20428;-79
2021/05/18 04:53:36;;;;;;;2.33;2.17;;;19.70;35.80;;;;;;5014445;28;20430;-79
2021/05/18 05:06:27;;;;;;;6.20;2.50;;;19.70;36.30;;;;;;5033291;28;20177;-79
2021/05/18 05:14:49;;;;;;;2.57;2.47;;;19.70;36.10;;;;;;5028678;28;20474;-80
2021/05/18 05:17:15;;;;;;;2.00;1.90;;;19.70;36.00;;;;;;5036501;28;20991;-81
2021/05/18 05:19:49;;;;;;;2.20;2.10;;;19.70;36.00;;;;;;5018889;28;20407;-82
2021/05/18 05:22:19;;;;;;;2.43;2.20;;;19.80;36.00;;;;;;5035910;28;20248;-81
2021/05/18 05:24:53;;;;;;;2.60;2.50;;;19.70;36.00;;;;;;5017680;28;20762;-82
2021/05/18 05:27:18;;;;;;;4.07;2.93;;;19.80;36.10;;;;;;5016001;28;20465;-82
2021/05/18 05:29:44;;;;;;;6.57;3.00;;;19.80;36.20;;;;;;5018077;28;20841;-82
2021/05/18 05:32:10;;;;;;;3.20;2.70;;;19.80;36.50;;;;;;5017316;28;20203;-82
2021/05/18 05:34:36;;;;;;;3.93;2.93;;;19.80;36.40;;;;;;5016793;28;20208;-80
2021/05/18 05:37:19;;;;;;;2.73;2.53;;;19.80;36.50;;;;;;5016685;28;20426;-81
2021/05/18 05:39:44;;;;;;;3.13;2.93;;;19.80;36.30;;;;;;5034776;28;20629;-83
2021/05/18 05:42:10;;;;;;;2.93;2.63;;;19.80;36.30;;;;;;5017396;28;20454;-82
2021/05/18 05:44:36;;;;;;;5.53;3.10;;;19.80;36.20;;;;;;5017849;28;20259;-81
2021/05/18 05:47:01;;;;;;;2.90;2.70;;;19.80;36.30;;;;;;5018155;28;20551;-82
2021/05/18 05:49:27;;;;;;;6.00;2.60;;;19.80;36.20;;;;;;5016536;28;20188;-82
2021/05/18 05:51:53;;;;;;;2.93;2.73;;;19.80;36.30;;;;;;5017165;28;20586;-82
2021/05/18 05:54:19;;;;;;;2.80;2.17;;;19.70;36.00;;;;;;5017189;28;20552;-82
2021/05/18 05:56:45;;;;;;;2.60;2.40;;;19.70;35.70;;;;;;5036559;28;20180;-81
2021/05/18 05:59:10;;;;;;;3.67;2.80;;;19.70;35.70;;;;;;5017959;28;20481;-81
2021/05/18 06:01:37;;;;;;;2.87;2.57;;;19.60;35.70;;;;;;5044642;28;20215;-81
2021/05/18 06:04:03;;;;;;;2.97;2.30;;;19.60;35.80;;;;;;5026569;28;20177;-81
2021/05/18 06:06:28;;;;;;;2.70;2.10;;;19.60;35.80;;;;;;5042979;28;20490;-77
2021/05/18 06:08:54;;;;;;;9.80;2.87;;;;;;;;;;5042955;28;20431;-80
2021/05/18 06:48:30;;;;;;;4.20;3.40;;;19.50;36.00;;;;;;5043468;28;20449;-80
2021/05/18 06:50:57;;;;;;;3.50;3.13;;;19.50;36.70;;;;;;5055213;28;20438;-79
2021/05/18 06:53:25;;;;;;;4.33;3.13;;;19.50;36.10;;;;;;5037920;28;20920;-81
2021/05/18 06:55:57;;;;;;;4.40;3.27;;;19.50;36.10;;;;;;5041410;28;20846;-79
2021/05/18 07:00:08;;;;;;;3.90;3.60;;;19.50;36.00;;;;;;5054653;28;21135;-80
2021/05/18 07:01:34;;;;;;;4.23;2.60;;;19.40;36.10;;;;;;5045256;28;20438;-78
2021/05/18 07:10:44;;;;;;;6.03;3.27;;;19.50;36.20;;;;;;5062556;28;20434;-79
2021/05/18 07:13:46;;;;;;;4.27;3.57;;;19.50;36.20;;;;;;5043084;28;20433;-80
2021/05/18 07:16:22;;;;;;;7.73;2.80;;;19.40;36.10;;;;;;5026694;28;20431;-80
2021/05/18 07:18:59;;;;;;;6.60;3.10;;;19.40;36.10;;;;;;5022683;28;20427;-79
2021/05/18 07:21:35;;;;;;;4.00;2.80;;;19.40;36.10;;;;;;5025194;28;20439;-81
2021/05/18 07:24:08;;;;;;;5.50;3.50;;;19.40;36.10;;;;;;5042479;28;20931;-78
2021/05/18 07:26:36;;;;;;;7.77;3.17;;;19.40;36.10;;;;;;5022836;28;20407;-80
2021/05/18 07:29:07;;;;;;;3.50;3.10;;;19.30;36.00;;;;;;5034002;28;21036;-81
2021/05/18 07:31:41;;;;;;;3.17;2.97;;;19.40;36.10;;;;;;5020612;28;20435;-80
2021/05/18 07:34:30;;;;;;;3.60;3.30;;;19.30;36.00;;;;;;5034804;28;20463;-81
2021/05/18 07:37:24;;;;;;;3.60;3.30;;;19.30;35.90;;;;;;5023565;28;20426;-81
2021/05/18 07:40:03;;;;;;;4.33;3.30;;;19.30;35.90;;;;;;5040469;28;20495;-79
2021/05/18 07:42:38;;;;;;;3.20;3.00;;;19.30;35.90;;;;;;5036926;28;20431;-80
2021/05/18 07:45:06;;;;;;;4.37;2.83;;;19.30;35.80;;;;;;5022482;28;20455;-78
2021/05/18 07:47:35;;;;;;;2.77;2.60;;;19.30;35.80;;;;;;5042588;28;20188;-80
2021/05/18 07:50:07;;;;;;;2.73;2.53;;;19.30;35.80;;;;;;5026406;28;20439;-81
2021/05/18 08:06:38;;;;;;;2.90;2.70;;;19.30;35.60;;;;;;5040787;28;20435;-79
2021/05/18 08:09:17;;;;;;;2.60;2.40;;;19.30;35.70;;;;;;5021412;28;20420;-79
2021/05/18 08:11:46;;;;;;;4.40;2.90;;;19.30;35.60;;;;;;5021447;28;20212;-80
2021/05/18 08:14:17;;;;;;;2.80;2.23;;;19.30;35.60;;;;;;5022361;28;20455;-81
2021/05/18 10:26:58;;;;;;;2.60;2.50;;;19.20;35.10;;;;;;5034754;28;20434;-78
2021/05/18 10:34:23;;;;;;;3.00;2.80;;;19.20;35.10;;;;;;5034282;28;20454;-78
2021/05/18 10:36:49;;;;;;;2.60;2.40;;;19.20;35.10;;;;;;5019590;28;20509;-79
2021/05/18 10:39:29;;;;;;;2.33;2.23;;;19.20;35.20;;;;;;5039218;28;20811;-79
2021/05/18 10:42:13;;;;;;;2.30;2.20;;;19.20;35.10;;;;;;5037481;28;20687;-78
2021/05/18 10:44:57;;;;;;;2.27;2.27;;;19.20;35.10;;;;;;5039074;28;20498;-77
2021/05/18 10:47:45;;;;;;;3.00;2.67;;;19.20;35.70;;;;;;5037900;28;20420;-78
2021/05/18 10:50:12;;;;;;;2.40;2.30;;;19.20;34.80;;;;;;5022557;28;20492;-80
2021/05/18 10:52:38;;;;;;;2.60;2.50;;;19.30;34.80;;;;;;5021199;28;20473;-79
2021/05/18 10:55:08;;;;;;;2.60;2.50;;;19.30;34.80;;;;;;5040352;28;20884;-79
2021/05/18 10:57:33;;;;;;;3.50;3.17;;;19.30;34.70;;;;;;5040083;28;20411;-79
2021/05/18 11:00:02;;;;;;;2.87;2.70;;;19.30;34.80;;;;;;5022255;28;20431;-79
2021/05/18 11:02:59;;;;;;;2.77;2.57;;;19.30;34.80;;;;;;5039312;28;20173;-79
2021/05/18 11:05:30;;;;;;;2.73;2.53;;;19.30;34.70;;;;;;5040836;28;20431;-79
2021/05/18 11:08:38;;;;;;;2.67;2.57;;;19.30;34.70;;;;;;5025452;28;20426;-81
2021/05/18 11:15:07;;;;;;;2.30;2.20;;;19.30;34.80;;;;;;5058285;28;20465;-79
2021/05/18 11:22:04;;;;;;;3.40;3.10;;;19.30;34.80;;;;;;4976822;28;20468;-79
2021/05/18 11:25:28;;;;;;;2.40;2.20;;;19.30;34.80;;;;;;4976892;28;20508;-77
2021/05/18 11:29:09;;;;;;;2.27;2.17;;;19.30;34.70;;;;;;4969163;28;20460;-78
2021/05/18 11:31:58;;;;;;;2.30;2.20;;;19.30;34.80;;;;;;4968930;28;20434;-78
2021/05/18 11:35:02;;;;;;;2.47;2.37;;;19.30;34.90;;;;;;4940258;29;20519;-79
2021/05/18 11:38:15;;;;;;;3.53;2.60;;;19.30;34.90;;;;;;4945725;28;21003;-79
2021/05/18 11:41:04;;;;;;;3.10;2.90;;;19.30;34.90;;;;;;4986683;28;20445;-79
2021/05/18 11:43:52;;;;;;;2.83;2.63;;;19.20;34.80;;;;;;4998715;28;20937;-79
2021/05/18 11:46:29;;;;;;;2.43;2.33;;;19.20;34.80;;;;;;4957489;28;20416;-79
2021/05/18 11:49:19;;;;;;;2.30;2.20;;;19.20;34.80;;;;;;5017864;28;20445;-78
2021/05/18 11:51:59;;;;;;;2.50;2.40;;;19.20;34.90;;;;;;5019509;28;20935;-77
2021/05/18 11:54:36;;;;;;;2.53;2.43;;;19.20;34.90;;;;;;5018641;28;21012;-80
2021/05/18 11:57:10;;;;;;;2.80;2.60;;;19.20;34.90;;;;;;5017827;28;20816;-77
2021/05/18 11:59:59;;;;;;;3.03;2.93;;;19.20;34.90;;;;;;5010884;28;20419;-80
2021/05/18 12:02:50;;;;;;;3.00;2.80;;;19.20;34.90;;;;;;4984313;28;20419;-78
2021/05/18 12:05:18;;;;;;;3.07;2.87;;;19.20;34.90;;;;;;4981853;28;20423;-79
2021/05/18 12:07:44;;;;;;;3.00;2.90;;;19.20;34.90;;;;;;5000310;28;20423;-77
2021/05/18 12:10:48;;;;;;;3.03;2.83;;;19.20;35.00;;;;;;5034385;28;20435;-79
2021/05/18 12:13:28;;;;;;;3.00;2.90;;;19.20;35.00;;;;;;5013072;28;20593;-79
2021/05/18 12:16:09;;;;;;;2.60;2.50;;;19.20;35.00;;;;;;5014416;28;20481;-77
2021/05/18 12:19:00;;;;;;;3.00;2.80;;;19.20;35.00;;;;;;5014183;28;20415;-77
2021/05/18 12:21:59;;;;;;;3.03;2.83;;;19.20;35.00;;;;;;5021777;28;20443;-79
2021/05/18 12:24:45;;;;;;;3.37;3.07;;;19.20;35.00;;;;;;5033357;28;20415;-77
2021/05/18 12:27:29;;;;;;;3.00;2.90;;;19.20;35.00;;;;;;5016008;28;20418;-78
2021/05/18 12:30:01;;;;;;;3.10;2.90;;;19.20;35.00;;;;;;5033613;28;20451;-79
2021/05/18 12:32:30;;;;;;;2.23;2.23;;;19.20;35.10;;;;;;5013601;28;20439;-79
2021/05/18 12:35:20;;;;;;;2.90;2.80;;;19.10;35.00;;;;;;5034716;28;20550;-80
2021/05/18 12:37:49;;;;;;;2.90;2.70;;;19.10;34.90;;;;;;5016825;28;20545;-80
2021/05/18 12:40:34;;;;;;;2.50;2.40;;;19.10;35.00;;;;;;5020408;28;20447;-81
2021/05/18 12:43:21;;;;;;;2.37;2.37;;;19.10;35.00;;;;;;5019193;28;20439;-80
2021/05/18 12:45:47;;;;;;;2.57;2.47;;;19.10;35.00;;;;;;5017328;28;20415;-80
2021/05/18 12:48:14;;;;;;;4.47;2.23;;;19.10;35.00;;;;;;5018406;28;20435;-80
2021/05/18 12:50:50;;;;;;;2.50;2.50;;;19.10;34.90;;;;;;5019062;28;20526;-80
2021/05/18 12:53:30;;;;;;;2.67;2.57;;;19.10;35.00;;;;;;5018342;28;20415;-81
2021/05/18 12:57:07;;;;;;;2.70;2.60;;;19.10;34.90;;;;;;5031369;28;20426;-81
2021/05/18 13:00:11;;;;;;;2.80;2.70;;;19.10;34.90;;;;;;5035839;28;20432;-79
2021/05/18 13:02:45;;;;;;;2.60;2.50;;;19.10;35.00;;;;;;5018848;28;20423;-79
2021/05/18 13:05:14;;;;;;;2.40;2.20;;;19.10;34.90;;;;;;5035555;28;20793;-79
2021/05/18 13:07:44;;;;;;;2.60;2.50;;;19.20;35.10;;;;;;5018899;28;20481;-79
2021/05/18 13:10:20;;;;;;;2.60;2.40;;;19.10;35.00;;;;;;5035508;28;20462;-79
2021/05/18 13:12:46;;;;;;;2.90;2.70;;;19.20;35.00;;;;;;5017617;28;20586;-79
2021/05/18 13:15:22;;;;;;;2.60;2.50;;;19.20;35.00;;;;;;5001499;28;20466;-81
2021/05/18 13:17:58;;;;;;;2.67;2.47;;;19.20;34.90;;;;;;4983350;28;20423;-80
2021/05/18 13:20:25;;;;;;;2.30;2.23;;;19.20;35.00;;;;;;5000166;28;20450;-80
2021/05/18 13:23:00;;;;;;;2.43;2.30;;;19.20;34.90;;;;;;5019833;28;20408;-81
2021/05/18 13:26:26;;;;;;;2.40;2.30;;;19.20;34.90;;;;;;5000077;28;20498;-80
2021/05/18 13:29:18;;;;;;;2.50;2.40;;;19.10;34.80;;;;;;5011421;28;20454;-79
2021/05/18 13:31:52;;;;;;;2.40;2.30;;;19.20;35.00;;;;;;5016472;28;20439;-80
2021/05/18 13:34:19;;;;;;;2.80;2.60;;;19.10;34.80;;;;;;5035116;28;20562;-79
2021/05/18 13:37:07;;;;;;;2.67;2.57;;;19.10;34.80;;;;;;5001110;28;20427;-80
2021/05/18 13:39:39;;;;;;;2.20;2.20;;;19.10;34.90;;;;;;5017877;28;20474;-80
2021/05/18 13:42:07;;;;;;;2.30;2.20;;;19.10;34.90;;;;;;4999226;28;20445;-79
2021/05/18 13:45:17;;;;;;;2.53;2.43;;;19.10;34.80;;;;;;4999033;28;20934;-81
2021/05/18 13:48:09;;;;;;;2.37;2.27;;;19.10;34.90;;;;;;5006062;28;20977;-80
2021/05/18 13:50:38;;;;;;;2.33;2.23;;;19.10;34.90;;;;;;5009271;28;20477;-79
2021/05/18 13:53:05;;;;;;;2.10;2.00;;;19.10;34.80;;;;;;5014283;28;20434;-79
2021/05/18 13:55:44;;;;;;;2.50;2.33;;;19.10;34.80;;;;;;5017730;28;20835;-79
2021/05/18 13:58:13;;;;;;;2.30;2.20;;;19.10;34.80;;;;;;5029225;28;20446;-79
2021/05/18 14:00:45;;;;;;;2.47;2.37;;;19.10;34.80;;;;;;5001425;28;20491;-79
2021/05/18 14:03:16;;;;;;;2.37;2.27;;;19.10;34.90;;;;;;5016980;28;20416;-78
2021/05/18 14:05:50;;;;;;;2.63;2.43;;;19.10;34.90;;;;;;5016695;28;20521;-78
2021/05/18 14:08:36;;;;;;;2.50;2.40;;;19.10;34.80;;;;;;5010525;28;20435;-79
2021/05/18 14:11:20;;;;;;;2.30;2.20;;;19.10;34.80;;;;;;5017284;28;21167;-80
2021/05/18 14:13:51;;;;;;;2.10;2.10;;;19.10;34.80;;;;;;5036432;28;20422;-77
2021/05/18 14:16:21;;;;;;;2.50;2.40;;;19.10;34.80;;;;;;5040327;28;20972;-77
2021/05/18 14:19:10;;;;;;;2.70;2.50;;;19.10;34.90;;;;;;5024039;28;20974;-79
2021/05/18 14:21:35;;;;;;;2.57;2.47;;;19.10;34.90;;;;;;5040695;28;20438;-76
2021/05/18 14:24:12;;;;;;;2.30;2.20;;;19.10;34.90;;;;;;5039745;28;20402;-78
2021/05/18 14:26:39;;;;;;;2.50;2.40;;;19.00;34.80;;;;;;5041685;28;20171;-78
2021/05/18 14:29:04;;;;;;;2.60;2.50;;;19.10;34.90;;;;;;5043043;28;20410;-78
2021/05/18 14:31:30;;;;;;;2.33;2.23;;;19.00;34.80;;;;;;5059852;28;20460;-78
2021/05/18 14:34:38;;;;;;;2.33;2.23;;;19.00;34.90;;;;;;5061295;28;20259;-79
2021/05/18 14:37:25;;;;;;;2.67;2.47;;;19.00;34.90;;;;;;5059901;28;20406;-80
2021/05/18 14:45:04;;;;;;;1.97;1.87;;;19.00;34.90;;;;;;5057140;28;21014;-79
2021/05/18 14:47:38;;;;;;;2.30;2.20;;;19.00;34.90;;;;;;5039251;28;20479;-77
2021/05/18 14:55:45;;;;;;;2.20;2.13;;;19.10;34.80;;;;;;5036288;28;20517;-79
2021/05/18 14:58:16;;;;;;;2.07;1.97;;;19.10;34.80;;;;;;5037835;28;20407;-78
2021/05/18 15:00:49;;;;;;;2.60;2.50;;;19.10;34.80;;;;;;5022328;28;20446;-78
2021/05/18 15:03:14;;;;;;;2.20;2.10;;;19.10;34.80;;;;;;5038660;28;20490;-78
2021/05/18 15:05:40;;;;;;;2.20;2.10;;;19.10;34.80;;;;;;5039680;28;20169;-78
2021/05/18 15:08:24;;;;;;;2.33;2.23;;;19.10;34.70;;;;;;5021935;28;20553;-78
2021/05/18 15:10:53;;;;;;;2.10;2.00;;;19.10;34.80;;;;;;5016405;28;20455;-78
2021/05/18 15:13:18;;;;;;;2.37;2.27;;;19.10;34.80;;;;;;5018286;28;20404;-79
2021/05/18 15:16:08;;;;;;;2.83;2.63;;;19.10;34.90;;;;;;5019868;28;20494;-77
2021/05/18 15:18:35;;;;;;;2.03;2.03;;;19.10;34.80;;;;;;5017722;28;20169;-78
2021/05/18 15:21:04;;;;;;;2.20;2.10;;;19.10;34.80;;;;;;5000301;28;20519;-77
2021/05/18 15:23:30;;;;;;;2.20;2.10;;;19.10;34.80;;;;;;5008886;28;20817;-79
2021/05/18 15:26:05;;;;;;;1.93;1.93;;;19.10;34.80;;;;;;5037667;28;20545;-78
2021/05/18 15:28:34;;;;;;;1.87;1.80;;;19.10;34.80;;;;;;5016899;28;20427;-78
2021/05/18 15:31:00;;;;;;;2.10;2.00;;;19.10;34.80;;;;;;5018961;28;20526;-77
2021/05/18 15:33:29;;;;;;;2.60;2.07;;;19.10;35.00;;;;;;5036352;28;20422;-77
2021/05/18 15:35:56;;;;;;;2.07;1.97;;;19.10;35.10;;;;;;5018242;28;20471;-77
2021/05/18 15:38:22;;;;;;;2.10;2.00;;;19.10;35.40;;;;;;5018877;28;20442;-78
2021/05/18 15:40:53;;;;;;;2.67;2.47;;;19.20;35.40;;;;;;5000952;28;20601;-78
2021/05/18 15:43:23;;;;;;;2.23;2.13;;;19.20;35.90;;;;;;5035177;28;20439;-78
2021/05/18 15:45:50;;;;;;;1.97;1.90;;;19.30;36.00;;;;;;5002782;28;20481;-79
2021/05/18 15:48:16;;;;;;;2.17;2.07;;;19.30;36.30;;;;;;5001871;28;20462;-78
2021/05/18 15:50:48;;;;;;;2.57;2.40;;;19.30;36.40;;;;;;5020427;28;20427;-79
2021/05/18 15:53:16;;;;;;;2.30;2.20;;;19.40;36.50;;;;;;5017708;28;20226;-78
2021/05/18 15:55:42;;;;;;;2.30;2.20;;;19.40;36.70;;;;;;5001155;28;20455;-79
2021/05/18 15:58:09;;;;;;;2.30;2.10;;;19.40;36.60;;;;;;5001363;28;20419;-79
2021/05/18 16:00:36;;;;;;;2.67;2.47;;;19.40;36.80;;;;;;5034819;28;20428;-77
2021/05/18 16:03:03;;;;;;;2.10;2.00;;;19.40;36.30;;;;;;5016742;28;20426;-77
2021/05/18 16:05:28;;;;;;;2.10;2.00;;;19.50;36.20;;;;;;5035910;28;20414;-78
2021/05/18 16:08:04;;;;;;;2.93;2.20;;;19.50;36.10;;;;;;5055165;28;20498;-78
2021/05/18 16:10:30;;;;;;;2.17;2.07;;;19.60;37.20;;;;;;5054696;28;20226;-78
2021/05/18 16:12:55;;;;;;;4.67;2.50;;;19.60;36.30;;;;;;5054981;28;20446;-79
2021/05/18 16:15:21;;;;;;;4.03;2.70;;;19.70;37.00;;;;;;5037586;28;20325;-78
2021/05/18 16:17:46;;;;;;;2.20;2.10;;;19.70;37.00;;;;;;5036726;28;20178;-78
2021/05/18 16:20:13;;;;;;;2.47;2.37;;;19.70;36.70;;;;;;5049978;28;20192;-77
2021/05/18 16:22:38;;;;;;;2.70;2.50;;;19.70;37.10;;;;;;5036791;28;20180;-79
2021/05/18 16:25:15;;;;;;;2.83;2.20;;;19.70;36.90;;;;;;5035452;28;20415;-79
2021/05/18 16:27:41;;;;;;;2.80;2.53;;;19.80;37.20;;;;;;5030847;28;20184;-78
2021/05/18 16:30:07;;;;;;;2.27;2.07;;;19.80;37.10;;;;;;5033998;28;20485;-81
2021/05/18 16:32:35;;;;;;;2.40;2.30;;;19.80;37.20;;;;;;5034089;28;20200;-80
2021/05/18 16:35:01;;;;;;;2.50;2.40;;;19.80;37.10;;;;;;5016833;28;20452;-80
2021/05/18 16:37:27;;;;;;;2.40;2.20;;;19.80;37.30;;;;;;5020588;28;20425;-81
2021/05/18 16:39:52;;;;;;;2.90;2.70;;;19.80;37.00;;;;;;5018857;28;20188;-80
2021/05/18 16:42:18;;;;;;;2.73;2.60;;;19.80;37.10;;;;;;5035131;28;20536;-80
2021/05/18 16:44:44;;;;;;;2.80;2.60;;;19.90;37.20;;;;;;5034430;28;20192;-79
2021/05/18 16:47:09;;;;;;;3.30;2.33;;;19.90;37.60;;;;;;5016592;28;20188;-79
2021/05/18 16:49:35;;;;;;;3.63;2.60;;;19.90;37.50;;;;;;5016415;28;20184;-79
2021/05/18 16:52:03;;;;;;;2.63;2.53;;;19.90;37.00;;;;;;5031411;28;20247;-78
2021/05/18 16:54:28;;;;;;;2.67;2.47;;;19.90;37.70;;;;;;5015374;28;20193;-78
2021/05/18 16:56:54;;;;;;;3.43;2.70;;;19.90;37.70;;;;;;5016417;28;21009;-78
2021/05/18 16:59:20;;;;;;;3.17;2.90;;;20.00;37.70;;;;;;5032604;28;20242;-78
2021/05/18 17:01:47;;;;;;;2.70;2.50;;;20.00;37.60;;;;;;5032938;28;20671;-78
2021/05/18 17:04:14;;;;;;;2.73;2.60;;;20.00;37.40;;;;;;5033139;28;20161;-78
2021/05/18 17:06:41;;;;;;;3.93;3.30;;;20.00;37.00;;;;;;5032998;28;20785;-78
2021/05/18 17:09:08;;;;;;;3.47;2.70;;;20.00;37.10;;;;;;5032790;28;20415;-76
2021/05/18 17:11:35;;;;;;;3.03;2.83;;;20.00;37.10;;;;;;5033066;28;20949;-76
2021/05/18 17:14:01;;;;;;;2.93;2.73;;;20.00;37.00;;;;;;5032602;28;20439;-77
2021/05/18 17:16:26;;;;;;;2.87;2.67;;;20.00;36.80;;;;;;5032381;28;20450;-78
2021/05/18 17:18:52;;;;;;;2.53;2.30;;;20.00;37.20;;;;;;5035290;28;20177;-78
2021/05/18 17:21:17;;;;;;;3.43;2.90;;;20.00;36.90;;;;;;5033429;28;20193;-79
2021/05/18 17:23:43;;;;;;;2.67;2.50;;;20.00;36.70;;;;;;5019905;28;20187;-80
2021/05/18 17:26:11;;;;;;;2.63;2.43;;;20.00;36.90;;;;;;5018869;28;20183;-79
2021/05/18 17:28:39;;;;;;;3.13;2.83;;;20.00;37.00;;;;;;5019298;28;20185;-79
2021/05/18 17:31:04;;;;;;;2.97;2.67;;;20.00;37.30;;;;;;5037122;28;20431;-79
2021/05/18 17:33:32;;;;;;;5.17;3.03;;;20.00;37.10;;;;;;5036784;28;20414;-78
2021/05/18 17:35:57;;;;;;;3.10;2.60;;;20.00;37.00;;;;;;5017684;28;20200;-78
2021/05/18 17:38:23;;;;;;;2.90;2.60;;;20.00;37.10;;;;;;5021335;28;20776;-79
2021/05/18 17:40:48;;;;;;;2.77;2.60;;;20.00;37.10;;;;;;5019986;28;20839;-80
2021/05/18 17:43:14;;;;;;;4.30;2.33;;;20.00;37.10;;;;;;5035704;28;20192;-78
2021/05/18 17:45:40;;;;;;;5.23;2.57;;;20.00;37.20;;;;;;5017391;28;20200;-78
2021/05/18 17:48:07;;;;;;;2.30;2.20;;;20.00;37.50;;;;;;5018310;28;20176;-78
2021/05/18 17:50:33;;;;;;;3.00;2.40;;;20.00;37.70;;;;;;5035815;28;20199;-78
2021/05/18 17:52:59;;;;;;;6.23;2.43;;;20.00;37.40;;;;;;5018610;28;20411;-78
2021/05/18 17:55:25;;;;;;;2.53;2.40;;;20.00;37.10;;;;;;5018267;28;20463;-78
2021/05/18 17:57:50;;;;;;;2.40;2.20;;;20.00;37.10;;;;;;5036361;28;20231;-78
2021/05/18 18:00:16;;;;;;;2.67;2.50;;;20.00;37.00;;;;;;5018503;28;20219;-79
2021/05/18 18:02:43;;;;;;;4.70;2.70;;;20.00;37.00;;;;;;5018382;28;20177;-79
2021/05/18 18:05:10;;;;;;;3.60;2.50;;;20.00;37.10;;;;;;5035907;28;20453;-78
2021/05/18 18:07:36;;;;;;;2.50;2.30;;;20.00;37.00;;;;;;5036322;28;20415;-78
2021/05/18 18:10:03;;;;;;;2.40;2.30;;;20.00;36.90;;;;;;5018563;28;20543;-77
2021/05/18 18:12:28;;;;;;;2.50;2.30;;;20.00;36.90;;;;;;5035879;28;20431;-78
2021/05/18 18:14:54;;;;;;;2.50;2.40;;;20.00;36.80;;;;;;5035879;28;20487;-79
2021/05/18 18:17:23;;;;;;;2.80;2.63;;;20.00;36.90;;;;;;5035158;28;20655;-78
2021/05/18 18:19:49;;;;;;;2.40;2.30;;;20.00;36.80;;;;;;5034939;28;20482;-77
2021/05/18 18:22:14;;;;;;;2.23;2.13;;;20.00;36.80;;;;;;5018095;28;20412;-78
2021/05/18 18:24:40;;;;;;;2.80;2.57;;;20.00;36.70;;;;;;5033911;28;20169;-79
2021/05/18 18:27:10;;;;;;;3.17;2.57;;;20.00;36.80;;;;;;5033867;28;20177;-79